sensor_id;sensor_type;location;lat;lon;timestamp;temperature;humidity
28845;DHT22;15976;47.938;7.758;2023-03-23T00:01:03;16.70;45.60
28845;DHT22;15976;47.938;7.758;2023-03-23T00:03:30;16.70;45.70
28845;DHT22;15976;47.938;7.758;2023-03-23T00:06:00;16.70;45.80
28845;DHT22;15976;47.938;7.758;2023-03-23T00:08:36;16.70;45.80
28845;DHT22;15976;47.938;7.758;2023-03-23T00:11:21;16.70;45.90
28845;DHT22;15976;47.938;7.758;2023-03-23T00:13:49;16.70;46.30
28845;DHT22;15976;47.938;7.758;2023-03-23T00:16:20;16.70;46.40
28845;DHT22;15976;47.938;7.758;2023-03-23T00:18:54;16.60;46.50
28845;DHT22;15976;47.938;7.758;2023-03-23T00:21:22;16.60;46.40
28845;DHT22;15976;47.938;7.758;2023-03-23T00:24:04;16.60;46.50
28845;DHT22;15976;47.938;7.758;2023-03-23T00:26:31;16.70;46.50
28845;DHT22;15976;47.938;7.758;2023-03-23T00:29:07;16.70;46.60
28845;DHT22;15976;47.938;7.758;2023-03-23T00:31:34;16.60;46.70
28845;DHT22;15976;47.938;7.758;2023-03-23T00:34:04;16.60;46.80
28845;DHT22;15976;47.938;7.758;2023-03-23T00:36:31;16.70;46.90
28845;DHT22;15976;47.938;7.758;2023-03-23T00:38:59;16.60;46.90
28845;DHT22;15976;47.938;7.758;2023-03-23T00:41:27;16.60;47.10
28845;DHT22;15976;47.938;7.758;2023-03-23T00:43:57;16.60;47.30
28845;DHT22;15976;47.938;7.758;2023-03-23T00:46:24;16.60;47.40
28845;DHT22;15976;47.938;7.758;2023-03-23T00:48:50;16.60;47.40
28845;DHT22;15976;47.938;7.758;2023-03-23T00:51:18;16.60;47.40
28845;DHT22;15976;47.938;7.758;2023-03-23T00:53:44;16.60;47.60
28845;DHT22;15976;47.938;7.758;2023-03-23T00:56:11;16.60;47.70
28845;DHT22;15976;47.938;7.758;2023-03-23T00:58:37;16.60;47.70
28845;DHT22;15976;47.938;7.758;2023-03-23T01:01:03;16.60;47.80
28845;DHT22;15976;47.938;7.758;2023-03-23T01:03:30;16.60;48.30
28845;DHT22;15976;47.938;7.758;2023-03-23T01:06:03;16.60;48.00
28845;DHT22;15976;47.938;7.758;2023-03-23T01:08:28;16.60;48.00
28845;DHT22;15976;47.938;7.758;2023-03-23T01:11:05;16.60;48.00
28845;DHT22;15976;47.938;7.758;2023-03-23T01:13:32;16.60;48.00
28845;DHT22;15976;47.938;7.758;2023-03-23T01:15:58;16.60;48.10
28845;DHT22;15976;47.938;7.758;2023-03-23T01:18:24;16.60;48.10
28845;DHT22;15976;47.938;7.758;2023-03-23T01:20:50;16.60;48.20
28845;DHT22;15976;47.938;7.758;2023-03-23T01:23:16;16.60;48.10
28845;DHT22;15976;47.938;7.758;2023-03-23T01:25:43;16.60;48.10
28845;DHT22;15976;47.938;7.758;2023-03-23T01:28:11;16.60;48.00
28845;DHT22;15976;47.938;7.758;2023-03-23T01:30:37;16.60;48.00
28845;DHT22;15976;47.938;7.758;2023-03-23T01:33:03;16.60;47.90
28845;DHT22;15976;47.938;7.758;2023-03-23T01:35:29;16.60;47.80
28845;DHT22;15976;47.938;7.758;2023-03-23T01:37:54;16.60;47.70
28845;DHT22;15976;47.938;7.758;2023-03-23T01:40:21;16.60;47.60
28845;DHT22;15976;47.938;7.758;2023-03-23T01:42:47;16.60;47.60
28845;DHT22;15976;47.938;7.758;2023-03-23T01:48:04;16.70;47.50
28845;DHT22;15976;47.938;7.758;2023-03-23T01:50:37;16.70;47.40
28845;DHT22;15976;47.938;7.758;2023-03-23T01:53:08;16.70;47.30
28845;DHT22;15976;47.938;7.758;2023-03-23T01:55:37;16.70;47.10
28845;DHT22;15976;47.938;7.758;2023-03-23T01:58:05;16.70;46.90
28845;DHT22;15976;47.938;7.758;2023-03-23T02:00:32;16.70;46.70
28845;DHT22;15976;47.938;7.758;2023-03-23T02:03:00;16.80;46.50
28845;DHT22;15976;47.938;7.758;2023-03-23T02:05:35;16.80;46.40
28845;DHT22;15976;47.938;7.758;2023-03-23T02:08:10;16.80;46.20
28845;DHT22;15976;47.938;7.758;2023-03-23T02:10:37;16.90;46.10
28845;DHT22;15976;47.938;7.758;2023-03-23T02:13:05;16.80;46.00
28845;DHT22;15976;47.938;7.758;2023-03-23T02:18:29;16.80;45.90
28845;DHT22;15976;47.938;7.758;2023-03-23T02:30:02;16.90;45.90
28845;DHT22;15976;47.938;7.758;2023-03-23T02:33:06;16.90;45.90
28845;DHT22;15976;47.938;7.758;2023-03-23T02:36:00;16.90;46.00
28845;DHT22;15976;47.938;7.758;2023-03-23T02:38:35;16.90;45.90
28845;DHT22;15976;47.938;7.758;2023-03-23T02:41:03;16.90;45.80
28845;DHT22;15976;47.938;7.758;2023-03-23T02:43:36;16.90;45.70
28845;DHT22;15976;47.938;7.758;2023-03-23T02:46:05;17.00;45.60
28845;DHT22;15976;47.938;7.758;2023-03-23T02:48:33;17.00;45.60
28845;DHT22;15976;47.938;7.758;2023-03-23T02:51:00;17.00;45.40
28845;DHT22;15976;47.938;7.758;2023-03-23T02:53:28;17.00;45.30
28845;DHT22;15976;47.938;7.758;2023-03-23T02:55:55;17.00;45.30
28845;DHT22;15976;47.938;7.758;2023-03-23T02:58:25;17.00;45.30
28845;DHT22;15976;47.938;7.758;2023-03-23T03:00:54;17.00;45.40
28845;DHT22;15976;47.938;7.758;2023-03-23T03:03:26;17.00;45.20
28845;DHT22;15976;47.938;7.758;2023-03-23T03:11:10;17.10;45.10
28845;DHT22;15976;47.938;7.758;2023-03-23T03:17:01;17.00;45.20
28845;DHT22;15976;47.938;7.758;2023-03-23T03:19:33;17.00;45.30
28845;DHT22;15976;47.938;7.758;2023-03-23T03:22:01;17.00;45.20
28845;DHT22;15976;47.938;7.758;2023-03-23T03:24:38;17.00;45.10
28845;DHT22;15976;47.938;7.758;2023-03-23T03:27:14;17.10;45.10
28845;DHT22;15976;47.938;7.758;2023-03-23T03:29:53;17.10;45.00
28845;DHT22;15976;47.938;7.758;2023-03-23T03:32:23;17.10;44.80
28845;DHT22;15976;47.938;7.758;2023-03-23T03:34:51;17.10;45.30
28845;DHT22;15976;47.938;7.758;2023-03-23T03:37:18;17.10;44.70
28845;DHT22;15976;47.938;7.758;2023-03-23T03:39:47;17.10;44.70
28845;DHT22;15976;47.938;7.758;2023-03-23T03:42:13;17.20;44.80
28845;DHT22;15976;47.938;7.758;2023-03-23T03:44:40;17.10;44.70
28845;DHT22;15976;47.938;7.758;2023-03-23T03:47:06;17.10;44.80
28845;DHT22;15976;47.938;7.758;2023-03-23T03:49:32;17.10;44.80
28845;DHT22;15976;47.938;7.758;2023-03-23T03:51:57;17.10;44.80
28845;DHT22;15976;47.938;7.758;2023-03-23T03:54:33;17.10;44.80
28845;DHT22;15976;47.938;7.758;2023-03-23T03:56:58;17.10;44.80
28845;DHT22;15976;47.938;7.758;2023-03-23T03:59:50;17.10;44.80
28845;DHT22;15976;47.938;7.758;2023-03-23T04:02:35;17.00;44.80
28845;DHT22;15976;47.938;7.758;2023-03-23T04:05:01;17.00;45.00
28845;DHT22;15976;47.938;7.758;2023-03-23T04:07:30;17.00;45.10
28845;DHT22;15976;47.938;7.758;2023-03-23T04:09:57;17.00;45.10
28845;DHT22;15976;47.938;7.758;2023-03-23T04:12:23;17.00;45.10
28845;DHT22;15976;47.938;7.758;2023-03-23T04:14:56;17.00;45.10
28845;DHT22;15976;47.938;7.758;2023-03-23T04:17:26;17.00;45.10
28845;DHT22;15976;47.938;7.758;2023-03-23T04:19:54;17.00;45.00
28845;DHT22;15976;47.938;7.758;2023-03-23T04:22:24;17.00;45.10
28845;DHT22;15976;47.938;7.758;2023-03-23T04:25:00;17.00;45.10
28845;DHT22;15976;47.938;7.758;2023-03-23T04:27:29;17.00;45.00
28845;DHT22;15976;47.938;7.758;2023-03-23T04:29:58;17.00;45.10
28845;DHT22;15976;47.938;7.758;2023-03-23T04:32:51;17.00;45.20
28845;DHT22;15976;47.938;7.758;2023-03-23T04:35:24;17.00;45.30
28845;DHT22;15976;47.938;7.758;2023-03-23T04:38:23;17.00;45.40
28845;DHT22;15976;47.938;7.758;2023-03-23T04:40:56;16.90;45.50
28845;DHT22;15976;47.938;7.758;2023-03-23T04:43:43;17.00;45.60
28845;DHT22;15976;47.938;7.758;2023-03-23T04:46:20;17.00;45.60
28845;DHT22;15976;47.938;7.758;2023-03-23T04:48:48;17.00;45.70
28845;DHT22;15976;47.938;7.758;2023-03-23T04:51:28;17.00;45.80
28845;DHT22;15976;47.938;7.758;2023-03-23T04:53:55;16.90;45.80
28845;DHT22;15976;47.938;7.758;2023-03-23T04:56:23;16.90;45.80
28845;DHT22;15976;47.938;7.758;2023-03-23T04:58:51;16.90;45.90
28845;DHT22;15976;47.938;7.758;2023-03-23T05:01:46;16.90;46.00
28845;DHT22;15976;47.938;7.758;2023-03-23T05:04:17;16.90;46.20
28845;DHT22;15976;47.938;7.758;2023-03-23T05:06:57;16.90;46.40
28845;DHT22;15976;47.938;7.758;2023-03-23T05:09:27;16.80;46.50
28845;DHT22;15976;47.938;7.758;2023-03-23T05:11:54;16.80;46.70
28845;DHT22;15976;47.938;7.758;2023-03-23T05:14:20;16.80;46.80
28845;DHT22;15976;47.938;7.758;2023-03-23T05:17:03;16.80;46.80
28845;DHT22;15976;47.938;7.758;2023-03-23T05:19:28;16.80;46.80
28845;DHT22;15976;47.938;7.758;2023-03-23T05:21:57;16.80;47.00
28845;DHT22;15976;47.938;7.758;2023-03-23T05:24:32;16.70;47.10
28845;DHT22;15976;47.938;7.758;2023-03-23T05:27:01;16.70;47.30
28845;DHT22;15976;47.938;7.758;2023-03-23T05:29:32;16.70;47.40
28845;DHT22;15976;47.938;7.758;2023-03-23T05:32:00;16.70;47.50
28845;DHT22;15976;47.938;7.758;2023-03-23T05:34:27;16.70;47.50
28845;DHT22;15976;47.938;7.758;2023-03-23T05:36:57;16.70;47.70
28845;DHT22;15976;47.938;7.758;2023-03-23T05:39:55;16.60;47.70
28845;DHT22;15976;47.938;7.758;2023-03-23T05:42:24;16.60;47.80
28845;DHT22;15976;47.938;7.758;2023-03-23T05:45:09;16.60;48.10
28845;DHT22;15976;47.938;7.758;2023-03-23T05:47:38;16.60;48.30
28845;DHT22;15976;47.938;7.758;2023-03-23T05:50:09;16.60;48.50
28845;DHT22;15976;47.938;7.758;2023-03-23T05:52:37;16.50;48.40
28845;DHT22;15976;47.938;7.758;2023-03-23T05:55:07;16.50;48.50
28845;DHT22;15976;47.938;7.758;2023-03-23T05:57:35;16.50;48.60
28845;DHT22;15976;47.938;7.758;2023-03-23T06:00:06;16.50;48.60
28845;DHT22;15976;47.938;7.758;2023-03-23T06:02:47;16.50;48.70
28845;DHT22;15976;47.938;7.758;2023-03-23T06:05:20;16.50;48.90
28845;DHT22;15976;47.938;7.758;2023-03-23T06:07:52;16.50;49.00
28845;DHT22;15976;47.938;7.758;2023-03-23T06:10:19;16.50;49.10
28845;DHT22;15976;47.938;7.758;2023-03-23T06:12:52;16.50;49.20
28845;DHT22;15976;47.938;7.758;2023-03-23T06:15:35;16.40;49.30
28845;DHT22;15976;47.938;7.758;2023-03-23T06:18:02;16.40;49.40
28845;DHT22;15976;47.938;7.758;2023-03-23T06:20:46;16.40;49.60
28845;DHT22;15976;47.938;7.758;2023-03-23T06:23:36;16.30;49.60
28845;DHT22;15976;47.938;7.758;2023-03-23T06:26:07;16.40;49.80
28845;DHT22;15976;47.938;7.758;2023-03-23T06:28:34;16.30;50.00
28845;DHT22;15976;47.938;7.758;2023-03-23T06:31:05;16.30;50.00
28845;DHT22;15976;47.938;7.758;2023-03-23T06:33:34;16.30;50.20
28845;DHT22;15976;47.938;7.758;2023-03-23T06:36:04;16.30;50.20
28845;DHT22;15976;47.938;7.758;2023-03-23T06:38:53;16.30;50.30
28845;DHT22;15976;47.938;7.758;2023-03-23T06:41:27;16.30;50.30
28845;DHT22;15976;47.938;7.758;2023-03-23T06:43:53;16.40;50.30
28845;DHT22;15976;47.938;7.758;2023-03-23T06:46:26;16.30;50.30
28845;DHT22;15976;47.938;7.758;2023-03-23T06:49:12;16.40;50.40
28845;DHT22;15976;47.938;7.758;2023-03-23T06:51:47;16.40;50.40
28845;DHT22;15976;47.938;7.758;2023-03-23T06:54:13;16.40;50.40
28845;DHT22;15976;47.938;7.758;2023-03-23T06:56:40;16.40;50.50
28845;DHT22;15976;47.938;7.758;2023-03-23T06:59:08;16.40;50.60
28845;DHT22;15976;47.938;7.758;2023-03-23T07:01:36;16.40;50.70
28845;DHT22;15976;47.938;7.758;2023-03-23T07:04:03;16.40;50.70
28845;DHT22;15976;47.938;7.758;2023-03-23T07:06:48;16.40;50.80
28845;DHT22;15976;47.938;7.758;2023-03-23T07:09:15;16.40;50.80
28845;DHT22;15976;47.938;7.758;2023-03-23T07:11:41;16.40;50.90
28845;DHT22;15976;47.938;7.758;2023-03-23T07:14:18;16.30;50.90
28845;DHT22;15976;47.938;7.758;2023-03-23T07:16:45;16.40;51.00
28845;DHT22;15976;47.938;7.758;2023-03-23T07:19:12;16.30;50.90
28845;DHT22;15976;47.938;7.758;2023-03-23T07:21:38;16.30;50.80
28845;DHT22;15976;47.938;7.758;2023-03-23T07:24:04;16.40;50.90
28845;DHT22;15976;47.938;7.758;2023-03-23T07:26:43;16.40;51.00
28845;DHT22;15976;47.938;7.758;2023-03-23T07:29:09;16.40;50.90
28845;DHT22;15976;47.938;7.758;2023-03-23T07:31:42;16.40;51.10
28845;DHT22;15976;47.938;7.758;2023-03-23T07:34:08;16.30;51.20
28845;DHT22;15976;47.938;7.758;2023-03-23T07:36:46;16.30;51.70
28845;DHT22;15976;47.938;7.758;2023-03-23T07:39:14;16.20;52.80
28845;DHT22;15976;47.938;7.758;2023-03-23T07:41:41;16.00;53.60
28845;DHT22;15976;47.938;7.758;2023-03-23T07:44:16;15.90;54.90
28845;DHT22;15976;47.938;7.758;2023-03-23T07:46:43;15.70;55.20
28845;DHT22;15976;47.938;7.758;2023-03-23T07:49:12;15.40;57.10
28845;DHT22;15976;47.938;7.758;2023-03-23T07:51:44;15.10;59.00
28845;DHT22;15976;47.938;7.758;2023-03-23T07:54:13;14.70;61.90
28845;DHT22;15976;47.938;7.758;2023-03-23T07:57:03;14.40;65.20
28845;DHT22;15976;47.938;7.758;2023-03-23T07:59:32;14.10;67.60
28845;DHT22;15976;47.938;7.758;2023-03-23T08:01:59;14.00;69.00
28845;DHT22;15976;47.938;7.758;2023-03-23T08:04:25;13.90;69.60
28845;DHT22;15976;47.938;7.758;2023-03-23T08:07:16;13.80;70.20
28845;DHT22;15976;47.938;7.758;2023-03-23T08:10:06;13.60;71.30
28845;DHT22;15976;47.938;7.758;2023-03-23T08:12:56;13.50;71.90
28845;DHT22;15976;47.938;7.758;2023-03-23T08:15:25;13.50;72.50
28845;DHT22;15976;47.938;7.758;2023-03-23T08:18:24;13.50;72.90
28845;DHT22;15976;47.938;7.758;2023-03-23T08:21:13;13.50;73.90
28845;DHT22;15976;47.938;7.758;2023-03-23T08:24:02;13.50;74.70
28845;DHT22;15976;47.938;7.758;2023-03-23T08:26:47;13.50;75.10
28845;DHT22;15976;47.938;7.758;2023-03-23T08:29:25;13.40;75.70
28845;DHT22;15976;47.938;7.758;2023-03-23T08:32:08;13.40;76.00
28845;DHT22;15976;47.938;7.758;2023-03-23T08:34:40;13.50;76.10
28845;DHT22;15976;47.938;7.758;2023-03-23T08:37:26;13.40;76.40
28845;DHT22;15976;47.938;7.758;2023-03-23T08:40:15;13.40;76.60
28845;DHT22;15976;47.938;7.758;2023-03-23T08:43:17;13.40;76.40
28845;DHT22;15976;47.938;7.758;2023-03-23T08:46:02;13.40;76.70
28845;DHT22;15976;47.938;7.758;2023-03-23T08:49:01;13.50;76.40
28845;DHT22;15976;47.938;7.758;2023-03-23T08:51:50;13.60;76.70
28845;DHT22;15976;47.938;7.758;2023-03-23T08:54:35;13.80;77.30
28845;DHT22;15976;47.938;7.758;2023-03-23T08:57:20;13.90;77.00
28845;DHT22;15976;47.938;7.758;2023-03-23T08:59:58;13.80;76.10
28845;DHT22;15976;47.938;7.758;2023-03-23T09:02:53;13.80;76.20
28845;DHT22;15976;47.938;7.758;2023-03-23T09:05:23;13.80;76.20
28845;DHT22;15976;47.938;7.758;2023-03-23T09:08:15;13.90;76.20
28845;DHT22;15976;47.938;7.758;2023-03-23T09:10:41;13.90;74.90
28845;DHT22;15976;47.938;7.758;2023-03-23T09:13:07;13.90;74.70
28845;DHT22;15976;47.938;7.758;2023-03-23T09:15:33;13.90;73.40
28845;DHT22;15976;47.938;7.758;2023-03-23T09:17:59;13.90;72.80
28845;DHT22;15976;47.938;7.758;2023-03-23T09:20:27;14.00;72.60
28845;DHT22;15976;47.938;7.758;2023-03-23T09:22:54;14.10;72.50
28845;DHT22;15976;47.938;7.758;2023-03-23T09:25:22;14.20;71.40
28845;DHT22;15976;47.938;7.758;2023-03-23T09:27:55;14.40;70.50
28845;DHT22;15976;47.938;7.758;2023-03-23T09:30:27;14.50;68.90
28845;DHT22;15976;47.938;7.758;2023-03-23T09:32:54;14.60;68.30
28845;DHT22;15976;47.938;7.758;2023-03-23T09:35:21;14.70;67.40
28845;DHT22;15976;47.938;7.758;2023-03-23T09:37:48;14.80;66.10
28845;DHT22;15976;47.938;7.758;2023-03-23T09:40:19;15.00;65.40
28845;DHT22;15976;47.938;7.758;2023-03-23T09:53:56;16.00;61.10
28845;DHT22;15976;47.938;7.758;2023-03-23T09:56:25;16.10;60.40
28845;DHT22;15976;47.938;7.758;2023-03-23T10:01:32;16.30;59.40
28845;DHT22;15976;47.938;7.758;2023-03-23T10:04:10;16.50;59.30
28845;DHT22;15976;47.938;7.758;2023-03-23T10:06:38;16.70;59.20
28845;DHT22;15976;47.938;7.758;2023-03-23T10:09:05;16.90;58.80
28845;DHT22;15976;47.938;7.758;2023-03-23T10:16:36;17.40;57.00
28845;DHT22;15976;47.938;7.758;2023-03-23T10:19:16;17.50;56.60
28845;DHT22;15976;47.938;7.758;2023-03-23T10:22:08;17.40;55.90
28845;DHT22;15976;47.938;7.758;2023-03-23T10:24:38;17.50;55.70
28845;DHT22;15976;47.938;7.758;2023-03-23T10:27:38;17.60;55.80
28845;DHT22;15976;47.938;7.758;2023-03-23T10:33:01;18.10;53.90
28845;DHT22;15976;47.938;7.758;2023-03-23T10:35:45;18.40;53.00
28845;DHT22;15976;47.938;7.758;2023-03-23T10:38:21;18.70;52.30
28845;DHT22;15976;47.938;7.758;2023-03-23T10:40:54;19.00;51.90
28845;DHT22;15976;47.938;7.758;2023-03-23T10:43:23;19.40;51.10
28845;DHT22;15976;47.938;7.758;2023-03-23T10:45:57;19.50;50.10
28845;DHT22;15976;47.938;7.758;2023-03-23T10:48:30;19.60;49.90
28845;DHT22;15976;47.938;7.758;2023-03-23T10:51:00;19.60;49.80
28845;DHT22;15976;47.938;7.758;2023-03-23T10:53:42;19.60;49.50
28845;DHT22;15976;47.938;7.758;2023-03-23T10:56:29;19.60;49.40
28845;DHT22;15976;47.938;7.758;2023-03-23T10:58:55;19.50;49.60
28845;DHT22;15976;47.938;7.758;2023-03-23T11:01:32;19.50;49.50
28845;DHT22;15976;47.938;7.758;2023-03-23T11:04:00;19.50;49.30
28845;DHT22;15976;47.938;7.758;2023-03-23T11:06:29;19.50;49.20
28845;DHT22;15976;47.938;7.758;2023-03-23T11:09:03;19.50;49.00
28845;DHT22;15976;47.938;7.758;2023-03-23T11:11:41;19.50;49.10
28845;DHT22;15976;47.938;7.758;2023-03-23T11:14:26;19.50;49.20
28845;DHT22;15976;47.938;7.758;2023-03-23T11:16:58;19.40;49.60
28845;DHT22;15976;47.938;7.758;2023-03-23T11:19:29;19.40;48.60
28845;DHT22;15976;47.938;7.758;2023-03-23T11:22:07;19.30;48.50
28845;DHT22;15976;47.938;7.758;2023-03-23T11:24:45;19.20;48.50
28845;DHT22;15976;47.938;7.758;2023-03-23T11:27:14;19.20;48.90
28845;DHT22;15976;47.938;7.758;2023-03-23T11:30:08;19.30;48.90
28845;DHT22;15976;47.938;7.758;2023-03-23T11:32:35;19.20;48.80
28845;DHT22;15976;47.938;7.758;2023-03-23T11:35:07;19.30;48.50
28845;DHT22;15976;47.938;7.758;2023-03-23T11:37:47;19.30;48.90
28845;DHT22;15976;47.938;7.758;2023-03-23T11:40:17;19.40;48.80
28845;DHT22;15976;47.938;7.758;2023-03-23T11:45:37;19.70;48.70
28845;DHT22;15976;47.938;7.758;2023-03-23T11:50:51;20.20;48.00
28845;DHT22;15976;47.938;7.758;2023-03-23T11:53:42;20.30;47.70
28845;DHT22;15976;47.938;7.758;2023-03-23T11:56:29;20.40;47.20
28845;DHT22;15976;47.938;7.758;2023-03-23T11:58:57;20.40;46.90
28845;DHT22;15976;47.938;7.758;2023-03-23T12:12:12;20.20;46.40
28845;DHT22;15976;47.938;7.758;2023-03-23T12:23:25;20.00;45.70
28845;DHT22;15976;47.938;7.758;2023-03-23T12:26:14;19.90;45.70
28845;DHT22;15976;47.938;7.758;2023-03-23T12:31:40;19.80;45.80
28845;DHT22;15976;47.938;7.758;2023-03-23T12:34:52;19.70;46.30
28845;DHT22;15976;47.938;7.758;2023-03-23T12:48:34;19.40;46.60
28845;DHT22;15976;47.938;7.758;2023-03-23T12:54:29;19.20;46.90
28845;DHT22;15976;47.938;7.758;2023-03-23T12:57:08;19.10;47.10
28845;DHT22;15976;47.938;7.758;2023-03-23T12:59:47;19.10;47.40
28845;DHT22;15976;47.938;7.758;2023-03-23T13:02:28;19.10;47.60
28845;DHT22;15976;47.938;7.758;2023-03-23T13:05:09;19.10;47.80
28845;DHT22;15976;47.938;7.758;2023-03-23T13:07:39;19.10;47.80
28845;DHT22;15976;47.938;7.758;2023-03-23T13:10:22;19.10;47.90
28845;DHT22;15976;47.938;7.758;2023-03-23T13:12:50;19.00;47.90
28845;DHT22;15976;47.938;7.758;2023-03-23T13:16:23;19.00;48.60
28845;DHT22;15976;47.938;7.758;2023-03-23T13:21:29;18.90;48.30
28845;DHT22;15976;47.938;7.758;2023-03-23T13:24:06;18.90;48.50
28845;DHT22;15976;47.938;7.758;2023-03-23T13:26:38;18.80;48.50
28845;DHT22;15976;47.938;7.758;2023-03-23T13:29:18;18.90;48.60
28845;DHT22;15976;47.938;7.758;2023-03-23T13:31:46;19.00;48.60
28845;DHT22;15976;47.938;7.758;2023-03-23T13:37:05;19.10;48.70
28845;DHT22;15976;47.938;7.758;2023-03-23T13:39:47;19.00;48.80
28845;DHT22;15976;47.938;7.758;2023-03-23T13:47:39;19.00;47.20
28845;DHT22;15976;47.938;7.758;2023-03-23T13:52:59;18.80;47.30
28845;DHT22;15976;47.938;7.758;2023-03-23T13:55:39;18.90;47.30
28845;DHT22;15976;47.938;7.758;2023-03-23T14:06:02;18.90;47.00
28845;DHT22;15976;47.938;7.758;2023-03-23T14:11:10;18.70;47.10
28845;DHT22;15976;47.938;7.758;2023-03-23T14:13:45;18.70;46.80
28845;DHT22;15976;47.938;7.758;2023-03-23T14:16:25;18.60;46.60
28845;DHT22;15976;47.938;7.758;2023-03-23T14:18:56;18.50;46.70
28845;DHT22;15976;47.938;7.758;2023-03-23T14:24:03;18.40;47.10
28845;DHT22;15976;47.938;7.758;2023-03-23T14:26:29;18.40;47.30
28845;DHT22;15976;47.938;7.758;2023-03-23T14:28:59;18.40;47.50
28845;DHT22;15976;47.938;7.758;2023-03-23T14:31:26;18.30;47.70
28845;DHT22;15976;47.938;7.758;2023-03-23T14:33:54;18.20;47.80
28845;DHT22;15976;47.938;7.758;2023-03-23T14:36:27;18.20;47.90
28845;DHT22;15976;47.938;7.758;2023-03-23T14:39:01;18.20;47.80
28845;DHT22;15976;47.938;7.758;2023-03-23T14:41:31;18.20;47.90
28845;DHT22;15976;47.938;7.758;2023-03-23T14:44:00;18.20;48.00
28845;DHT22;15976;47.938;7.758;2023-03-23T14:46:26;18.20;48.10
28845;DHT22;15976;47.938;7.758;2023-03-23T14:48:53;18.20;48.20
28845;DHT22;15976;47.938;7.758;2023-03-23T14:51:20;18.20;48.30
28845;DHT22;15976;47.938;7.758;2023-03-23T14:53:46;18.20;48.40
28845;DHT22;15976;47.938;7.758;2023-03-23T14:56:18;18.20;48.60
28845;DHT22;15976;47.938;7.758;2023-03-23T14:58:46;18.20;48.50
28845;DHT22;15976;47.938;7.758;2023-03-23T15:01:19;18.20;49.10
28845;DHT22;15976;47.938;7.758;2023-03-23T15:04:14;18.20;48.80
28845;DHT22;15976;47.938;7.758;2023-03-23T15:06:43;18.20;48.70
28845;DHT22;15976;47.938;7.758;2023-03-23T15:09:17;18.20;48.70
28845;DHT22;15976;47.938;7.758;2023-03-23T15:12:01;18.20;48.70
28845;DHT22;15976;47.938;7.758;2023-03-23T15:14:49;18.20;48.80
28845;DHT22;15976;47.938;7.758;2023-03-23T15:17:21;18.20;48.90
28845;DHT22;15976;47.938;7.758;2023-03-23T15:19:48;18.20;49.00
28845;DHT22;15976;47.938;7.758;2023-03-23T15:24:51;18.10;49.40
28845;DHT22;15976;47.938;7.758;2023-03-23T15:27:30;18.10;49.50
28845;DHT22;15976;47.938;7.758;2023-03-23T15:30:12;18.10;49.80
28845;DHT22;15976;47.938;7.758;2023-03-23T15:32:40;18.10;49.90
28845;DHT22;15976;47.938;7.758;2023-03-23T15:35:20;18.10;50.10
28845;DHT22;15976;47.938;7.758;2023-03-23T15:37:58;18.10;50.20
28845;DHT22;15976;47.938;7.758;2023-03-23T15:40:27;18.10;50.20
28845;DHT22;15976;47.938;7.758;2023-03-23T15:45:56;18.20;50.40
28845;DHT22;15976;47.938;7.758;2023-03-23T15:48:26;18.20;50.60
28845;DHT22;15976;47.938;7.758;2023-03-23T15:50:52;18.20;50.40
28845;DHT22;15976;47.938;7.758;2023-03-23T15:55:47;18.20;50.30
28845;DHT22;15976;47.938;7.758;2023-03-23T15:58:13;18.20;50.40
28845;DHT22;15976;47.938;7.758;2023-03-23T16:00:42;18.20;50.50
28845;DHT22;15976;47.938;7.758;2023-03-23T16:03:15;18.10;50.60
28845;DHT22;15976;47.938;7.758;2023-03-23T16:05:43;18.10;50.60
28845;DHT22;15976;47.938;7.758;2023-03-23T16:08:11;18.10;50.40
28845;DHT22;15976;47.938;7.758;2023-03-23T16:10:38;18.00;50.30
28845;DHT22;15976;47.938;7.758;2023-03-23T16:13:05;18.10;50.30
28845;DHT22;15976;47.938;7.758;2023-03-23T16:15:32;18.00;50.30
28845;DHT22;15976;47.938;7.758;2023-03-23T16:17:59;18.00;50.10
28845;DHT22;15976;47.938;7.758;2023-03-23T16:20:27;18.00;50.20
28845;DHT22;15976;47.938;7.758;2023-03-23T16:22:55;18.00;50.10
28845;DHT22;15976;47.938;7.758;2023-03-23T16:25:23;18.00;50.20
28845;DHT22;15976;47.938;7.758;2023-03-23T16:27:50;17.90;50.10
28845;DHT22;15976;47.938;7.758;2023-03-23T16:30:24;17.90;50.20
28845;DHT22;15976;47.938;7.758;2023-03-23T16:32:52;17.90;50.10
28845;DHT22;15976;47.938;7.758;2023-03-23T16:35:23;17.80;50.10
28845;DHT22;15976;47.938;7.758;2023-03-23T16:37:53;17.90;50.10
28845;DHT22;15976;47.938;7.758;2023-03-23T16:40:37;17.80;50.00
28845;DHT22;15976;47.938;7.758;2023-03-23T16:43:04;17.80;50.00
28845;DHT22;15976;47.938;7.758;2023-03-23T16:45:35;17.80;50.00
28845;DHT22;15976;47.938;7.758;2023-03-23T16:48:03;17.80;50.00
28845;DHT22;15976;47.938;7.758;2023-03-23T16:50:35;17.80;50.00
28845;DHT22;15976;47.938;7.758;2023-03-23T16:53:03;17.80;50.00
28845;DHT22;15976;47.938;7.758;2023-03-23T16:55:30;17.80;50.10
28845;DHT22;15976;47.938;7.758;2023-03-23T16:57:58;17.70;50.20
28845;DHT22;15976;47.938;7.758;2023-03-23T17:00:43;17.70;50.20
28845;DHT22;15976;47.938;7.758;2023-03-23T17:03:10;17.70;50.20
28845;DHT22;15976;47.938;7.758;2023-03-23T17:05:39;17.70;50.20
28845;DHT22;15976;47.938;7.758;2023-03-23T17:08:06;17.70;50.20
28845;DHT22;15976;47.938;7.758;2023-03-23T17:10:34;17.70;50.30
28845;DHT22;15976;47.938;7.758;2023-03-23T17:13:03;17.60;50.30
28845;DHT22;15976;47.938;7.758;2023-03-23T17:15:30;17.60;50.40
28845;DHT22;15976;47.938;7.758;2023-03-23T17:17:57;17.60;50.40
28845;DHT22;15976;47.938;7.758;2023-03-23T17:20:24;17.60;50.60
28845;DHT22;15976;47.938;7.758;2023-03-23T17:22:51;17.50;50.60
28845;DHT22;15976;47.938;7.758;2023-03-23T17:25:18;17.60;50.70
28845;DHT22;15976;47.938;7.758;2023-03-23T17:27:45;17.50;50.60
28845;DHT22;15976;47.938;7.758;2023-03-23T17:30:12;17.50;50.60
28845;DHT22;15976;47.938;7.758;2023-03-23T17:32:39;17.50;50.60
28845;DHT22;15976;47.938;7.758;2023-03-23T17:35:06;17.50;50.80
28845;DHT22;15976;47.938;7.758;2023-03-23T17:37:34;17.40;50.80
28845;DHT22;15976;47.938;7.758;2023-03-23T17:40:04;17.50;50.90
28845;DHT22;15976;47.938;7.758;2023-03-23T17:42:34;17.40;51.00
28845;DHT22;15976;47.938;7.758;2023-03-23T17:45:02;17.40;51.00
28845;DHT22;15976;47.938;7.758;2023-03-23T17:47:30;17.40;51.10
28845;DHT22;15976;47.938;7.758;2023-03-23T17:49:57;17.40;51.00
28845;DHT22;15976;47.938;7.758;2023-03-23T17:52:24;17.30;50.80
28845;DHT22;15976;47.938;7.758;2023-03-23T17:54:51;17.30;51.40
28845;DHT22;15976;47.938;7.758;2023-03-23T17:57:19;17.30;50.90
28845;DHT22;15976;47.938;7.758;2023-03-23T17:59:46;17.30;50.60
28845;DHT22;15976;47.938;7.758;2023-03-23T18:02:13;17.30;50.30
28845;DHT22;15976;47.938;7.758;2023-03-23T18:04:41;17.30;50.10
28845;DHT22;15976;47.938;7.758;2023-03-23T18:07:08;17.30;49.90